sensor_id;sensor_type;location;lat;lon;timestamp;P1;durP1;ratioP1;P2;durP2;ratioP2
37267;SDS011;23154;52.542;13.362;2022-09-09T00:03:53;19.65;;;11.00;;
37267;SDS011;23154;52.542;13.362;2022-09-09T00:06:50;19.17;;;9.65;;
37267;SDS011;23154;52.542;13.362;2022-09-09T00:09:31;18.70;;;8.88;;
37267;SDS011;23154;52.542;13.362;2022-09-09T00:12:12;19.95;;;8.68;;
37267;SDS011;23154;52.542;13.362;2022-09-09T00:20:16;16.92;;;8.73;;
37267;SDS011;23154;52.542;13.362;2022-09-09T00:22:40;16.70;;;7.30;;
37267;SDS011;23154;52.542;13.362;2022-09-09T00:25:15;17.20;;;8.90;;
37267;SDS011;23154;52.542;13.362;2022-09-09T00:27:48;18.33;;;9.32;;
37267;SDS011;23154;52.542;13.362;2022-09-09T00:30:16;20.13;;;8.68;;
37267;SDS011;23154;52.542;13.362;2022-09-09T00:32:53;16.98;;;7.70;;
37267;SDS011;23154;52.542;13.362;2022-09-09T00:35:29;19.77;;;8.25;;
37267;SDS011;23154;52.542;13.362;2022-09-09T00:38:09;20.67;;;9.02;;
37267;SDS011;23154;52.542;13.362;2022-09-09T00:40:37;18.65;;;9.15;;
37267;SDS011;23154;52.542;13.362;2022-09-09T00:43:26;20.27;;;9.35;;
37267;SDS011;23154;52.542;13.362;2022-09-09T00:46:56;18.33;;;9.38;;
37267;SDS011;23154;52.542;13.362;2022-09-09T00:49:13;16.88;;;7.90;;
37267;SDS011;23154;52.542;13.362;2022-09-09T00:52:25;16.23;;;8.10;;
37267;SDS011;23154;52.542;13.362;2022-09-09T00:54:53;24.42;;;9.30;;
37267;SDS011;23154;52.542;13.362;2022-09-09T00:57:32;19.85;;;9.02;;
37267;SDS011;23154;52.542;13.362;2022-09-09T01:03:02;22.00;;;11.13;;
37267;SDS011;23154;52.542;13.362;2022-09-09T01:11:03;18.27;;;9.55;;
37267;SDS011;23154;52.542;13.362;2022-09-09T01:13:31;18.90;;;10.02;;
37267;SDS011;23154;52.542;13.362;2022-09-09T01:18:37;19.60;;;10.07;;
37267;SDS011;23154;52.542;13.362;2022-09-09T01:24:22;19.55;;;9.77;;
37267;SDS011;23154;52.542;13.362;2022-09-09T01:27:00;20.90;;;8.95;;
37267;SDS011;23154;52.542;13.362;2022-09-09T01:29:27;20.50;;;10.45;;
37267;SDS011;23154;52.542;13.362;2022-09-09T01:32:35;20.48;;;10.32;;
37267;SDS011;23154;52.542;13.362;2022-09-09T01:35:02;20.35;;;10.88;;
37267;SDS011;23154;52.542;13.362;2022-09-09T01:37:28;22.00;;;11.75;;
37267;SDS011;23154;52.542;13.362;2022-09-09T01:39:54;21.23;;;10.52;;
37267;SDS011;23154;52.542;13.362;2022-09-09T01:42:20;21.38;;;10.82;;
37267;SDS011;23154;52.542;13.362;2022-09-09T01:44:45;20.13;;;10.20;;
37267;SDS011;23154;52.542;13.362;2022-09-09T01:47:11;24.05;;;12.10;;
37267;SDS011;23154;52.542;13.362;2022-09-09T01:49:36;19.10;;;9.73;;
37267;SDS011;23154;52.542;13.362;2022-09-09T01:52:02;20.10;;;11.48;;
37267;SDS011;23154;52.542;13.362;2022-09-09T01:54:29;21.05;;;11.45;;
37267;SDS011;23154;52.542;13.362;2022-09-09T02:08:09;20.10;;;10.60;;
37267;SDS011;23154;52.542;13.362;2022-09-09T02:10:53;20.40;;;11.02;;
37267;SDS011;23154;52.542;13.362;2022-09-09T02:13:22;21.80;;;11.60;;
37267;SDS011;23154;52.542;13.362;2022-09-09T02:15:53;21.27;;;10.10;;
37267;SDS011;23154;52.542;13.362;2022-09-09T02:18:30;22.42;;;10.00;;
37267;SDS011;23154;52.542;13.362;2022-09-09T02:21:01;20.23;;;11.38;;
37267;SDS011;23154;52.542;13.362;2022-09-09T02:23:28;22.88;;;10.80;;
37267;SDS011;23154;52.542;13.362;2022-09-09T02:25:54;23.63;;;11.18;;
37267;SDS011;23154;52.542;13.362;2022-09-09T02:28:23;20.88;;;11.07;;
37267;SDS011;23154;52.542;13.362;2022-09-09T02:30:52;24.05;;;11.70;;
37267;SDS011;23154;52.542;13.362;2022-09-09T02:33:19;17.50;;;8.02;;
37267;SDS011;23154;52.542;13.362;2022-09-09T02:35:50;19.65;;;10.38;;
37267;SDS011;23154;52.542;13.362;2022-09-09T02:38:17;21.98;;;10.60;;
37267;SDS011;23154;52.542;13.362;2022-09-09T02:40:45;19.27;;;8.80;;
37267;SDS011;23154;52.542;13.362;2022-09-09T02:43:11;17.13;;;8.15;;
37267;SDS011;23154;52.542;13.362;2022-09-09T02:45:42;20.35;;;8.82;;
37267;SDS011;23154;52.542;13.362;2022-09-09T02:48:20;21.70;;;8.88;;
37267;SDS011;23154;52.542;13.362;2022-09-09T02:50:57;18.83;;;9.32;;
37267;SDS011;23154;52.542;13.362;2022-09-09T02:53:39;21.08;;;9.43;;
37267;SDS011;23154;52.542;13.362;2022-09-09T02:56:20;22.92;;;12.20;;
37267;SDS011;23154;52.542;13.362;2022-09-09T02:58:49;19.15;;;9.75;;
37267;SDS011;23154;52.542;13.362;2022-09-09T03:01:17;20.48;;;8.80;;
37267;SDS011;23154;52.542;13.362;2022-09-09T03:03:42;23.17;;;10.27;;
37267;SDS011;23154;52.542;13.362;2022-09-09T03:06:09;18.25;;;9.45;;
37267;SDS011;23154;52.542;13.362;2022-09-09T03:08:36;18.10;;;8.55;;
37267;SDS011;23154;52.542;13.362;2022-09-09T03:11:02;17.25;;;7.80;;
37267;SDS011;23154;52.542;13.362;2022-09-09T03:13:28;19.00;;;8.73;;
37267;SDS011;23154;52.542;13.362;2022-09-09T03:15:54;17.90;;;7.68;;
37267;SDS011;23154;52.542;13.362;2022-09-09T03:18:19;20.40;;;9.38;;
37267;SDS011;23154;52.542;13.362;2022-09-09T03:20:45;18.08;;;9.00;;
37267;SDS011;23154;52.542;13.362;2022-09-09T03:23:13;17.98;;;8.55;;
37267;SDS011;23154;52.542;13.362;2022-09-09T03:25:39;17.55;;;7.63;;
37267;SDS011;23154;52.542;13.362;2022-09-09T03:28:04;20.23;;;8.32;;
37267;SDS011;23154;52.542;13.362;2022-09-09T03:30:30;18.23;;;9.38;;
37267;SDS011;23154;52.542;13.362;2022-09-09T03:32:56;24.33;;;9.38;;
37267;SDS011;23154;52.542;13.362;2022-09-09T03:35:22;18.83;;;9.05;;
37267;SDS011;23154;52.542;13.362;2022-09-09T03:37:48;20.00;;;8.43;;
37267;SDS011;23154;52.542;13.362;2022-09-09T03:40:14;16.27;;;7.10;;
37267;SDS011;23154;52.542;13.362;2022-09-09T03:42:40;20.58;;;9.13;;
37267;SDS011;23154;52.542;13.362;2022-09-09T03:45:06;19.10;;;8.43;;
37267;SDS011;23154;52.542;13.362;2022-09-09T03:47:34;19.38;;;8.93;;
37267;SDS011;23154;52.542;13.362;2022-09-09T03:50:00;22.83;;;9.82;;
37267;SDS011;23154;52.542;13.362;2022-09-09T03:52:26;20.83;;;9.48;;
37267;SDS011;23154;52.542;13.362;2022-09-09T03:54:52;20.30;;;9.13;;
37267;SDS011;23154;52.542;13.362;2022-09-09T03:57:19;21.05;;;9.40;;
37267;SDS011;23154;52.542;13.362;2022-09-09T03:59:45;18.95;;;8.65;;
37267;SDS011;23154;52.542;13.362;2022-09-09T04:02:10;21.00;;;8.80;;
37267;SDS011;23154;52.542;13.362;2022-09-09T04:04:36;20.77;;;10.15;;
37267;SDS011;23154;52.542;13.362;2022-09-09T04:07:01;17.40;;;8.32;;
37267;SDS011;23154;52.542;13.362;2022-09-09T04:09:27;18.75;;;9.10;;
37267;SDS011;23154;52.542;13.362;2022-09-09T04:11:53;18.85;;;9.20;;
37267;SDS011;23154;52.542;13.362;2022-09-09T04:14:20;19.77;;;8.93;;
37267;SDS011;23154;52.542;13.362;2022-09-09T04:16:45;16.05;;;7.22;;
37267;SDS011;23154;52.542;13.362;2022-09-09T04:19:11;26.23;;;13.07;;
37267;SDS011;23154;52.542;13.362;2022-09-09T04:21:39;29.20;;;14.10;;
37267;SDS011;23154;52.542;13.362;2022-09-09T04:24:06;16.73;;;7.60;;
37267;SDS011;23154;52.542;13.362;2022-09-09T04:26:32;18.95;;;8.15;;
37267;SDS011;23154;52.542;13.362;2022-09-09T04:28:58;21.80;;;8.13;;
37267;SDS011;23154;52.542;13.362;2022-09-09T04:31:24;15.70;;;6.70;;
37267;SDS011;23154;52.542;13.362;2022-09-09T04:33:50;21.67;;;7.38;;
37267;SDS011;23154;52.542;13.362;2022-09-09T04:36:16;24.80;;;7.47;;
37267;SDS011;23154;52.542;13.362;2022-09-09T04:38:46;17.80;;;6.50;;
37267;SDS011;23154;52.542;13.362;2022-09-09T04:41:14;21.40;;;8.90;;
37267;SDS011;23154;52.542;13.362;2022-09-09T04:43:41;24.08;;;9.73;;
37267;SDS011;23154;52.542;13.362;2022-09-09T04:46:07;34.83;;;13.23;;
37267;SDS011;23154;52.542;13.362;2022-09-09T04:48:33;27.10;;;9.60;;
37267;SDS011;23154;52.542;13.362;2022-09-09T04:51:03;23.10;;;8.60;;
37267;SDS011;23154;52.542;13.362;2022-09-09T04:53:30;17.08;;;7.57;;
37267;SDS011;23154;52.542;13.362;2022-09-09T04:56:03;25.83;;;9.38;;
37267;SDS011;23154;52.542;13.362;2022-09-09T04:58:31;19.90;;;8.52;;
37267;SDS011;23154;52.542;13.362;2022-09-09T05:01:11;20.50;;;7.72;;
37267;SDS011;23154;52.542;13.362;2022-09-09T05:03:44;17.48;;;7.45;;
37267;SDS011;23154;52.542;13.362;2022-09-09T05:06:11;18.88;;;7.38;;
37267;SDS011;23154;52.542;13.362;2022-09-09T05:08:39;18.30;;;6.43;;
37267;SDS011;23154;52.542;13.362;2022-09-09T05:11:13;20.05;;;7.13;;
37267;SDS011;23154;52.542;13.362;2022-09-09T05:13:49;22.48;;;7.68;;
37267;SDS011;23154;52.542;13.362;2022-09-09T05:16:15;21.00;;;7.47;;
37267;SDS011;23154;52.542;13.362;2022-09-09T05:18:42;17.75;;;6.75;;
37267;SDS011;23154;52.542;13.362;2022-09-09T05:21:08;20.05;;;7.25;;
37267;SDS011;23154;52.542;13.362;2022-09-09T05:23:35;22.75;;;8.40;;
37267;SDS011;23154;52.542;13.362;2022-09-09T05:26:01;18.80;;;6.45;;
37267;SDS011;23154;52.542;13.362;2022-09-09T05:28:27;17.88;;;6.65;;
37267;SDS011;23154;52.542;13.362;2022-09-09T05:30:57;19.63;;;5.95;;
37267;SDS011;23154;52.542;13.362;2022-09-09T05:33:24;17.55;;;5.75;;
37267;SDS011;23154;52.542;13.362;2022-09-09T05:36:00;19.35;;;6.38;;
37267;SDS011;23154;52.542;13.362;2022-09-09T05:38:30;14.27;;;5.05;;
37267;SDS011;23154;52.542;13.362;2022-09-09T05:41:01;16.23;;;6.45;;
37267;SDS011;23154;52.542;13.362;2022-09-09T05:43:27;18.45;;;7.35;;
37267;SDS011;23154;52.542;13.362;2022-09-09T05:46:06;18.38;;;6.25;;
37267;SDS011;23154;52.542;13.362;2022-09-09T05:48:35;16.25;;;6.30;;
37267;SDS011;23154;52.542;13.362;2022-09-09T05:51:02;18.10;;;6.38;;
37267;SDS011;23154;52.542;13.362;2022-09-09T05:53:30;16.15;;;5.40;;
37267;SDS011;23154;52.542;13.362;2022-09-09T05:56:02;17.65;;;5.80;;
37267;SDS011;23154;52.542;13.362;2022-09-09T05:58:30;16.48;;;5.53;;
37267;SDS011;23154;52.542;13.362;2022-09-09T06:01:02;16.77;;;5.63;;
37267;SDS011;23154;52.542;13.362;2022-09-09T06:03:39;17.08;;;5.50;;
37267;SDS011;23154;52.542;13.362;2022-09-09T06:06:07;21.42;;;5.85;;
37267;SDS011;23154;52.542;13.362;2022-09-09T06:08:35;16.40;;;5.72;;
37267;SDS011;23154;52.542;13.362;2022-09-09T06:11:04;17.90;;;5.93;;
37267;SDS011;23154;52.542;13.362;2022-09-09T06:13:38;17.02;;;6.57;;
37267;SDS011;23154;52.542;13.362;2022-09-09T06:16:08;18.45;;;6.40;;
37267;SDS011;23154;52.542;13.362;2022-09-09T06:18:36;17.13;;;5.68;;
37267;SDS011;23154;52.542;13.362;2022-09-09T06:21:03;18.58;;;5.43;;
37267;SDS011;23154;52.542;13.362;2022-09-09T06:23:31;20.45;;;5.22;;
37267;SDS011;23154;52.542;13.362;2022-09-09T06:28:28;19.33;;;5.07;;
37267;SDS011;23154;52.542;13.362;2022-09-09T06:30:57;20.95;;;5.13;;
37267;SDS011;23154;52.542;13.362;2022-09-09T06:33:30;16.17;;;5.25;;
37267;SDS011;23154;52.542;13.362;2022-09-09T06:35:59;16.85;;;5.10;;
37267;SDS011;23154;52.542;13.362;2022-09-09T06:38:26;20.60;;;5.05;;
37267;SDS011;23154;52.542;13.362;2022-09-09T06:40:53;16.13;;;4.53;;
37267;SDS011;23154;52.542;13.362;2022-09-09T06:43:20;17.35;;;4.88;;
37267;SDS011;23154;52.542;13.362;2022-09-09T06:45:56;17.75;;;4.85;;
37267;SDS011;23154;52.542;13.362;2022-09-09T06:48:23;17.73;;;4.60;;
37267;SDS011;23154;52.542;13.362;2022-09-09T06:50:50;19.88;;;5.25;;
37267;SDS011;23154;52.542;13.362;2022-09-09T06:53:26;17.90;;;4.97;;
37267;SDS011;23154;52.542;13.362;2022-09-09T06:55:52;22.48;;;4.95;;
37267;SDS011;23154;52.542;13.362;2022-09-09T06:58:18;17.75;;;5.00;;
37267;SDS011;23154;52.542;13.362;2022-09-09T07:00:43;14.95;;;4.70;;
37267;SDS011;23154;52.542;13.362;2022-09-09T07:03:09;21.45;;;4.57;;
37267;SDS011;23154;52.542;13.362;2022-09-09T07:05:35;12.52;;;4.30;;
37267;SDS011;23154;52.542;13.362;2022-09-09T07:08:02;17.15;;;4.28;;
37267;SDS011;23154;52.542;13.362;2022-09-09T07:10:27;16.02;;;4.32;;
37267;SDS011;23154;52.542;13.362;2022-09-09T07:12:53;14.60;;;4.20;;
37267;SDS011;23154;52.542;13.362;2022-09-09T07:15:18;17.83;;;4.20;;
37267;SDS011;23154;52.542;13.362;2022-09-09T07:17:44;12.18;;;3.63;;
37267;SDS011;23154;52.542;13.362;2022-09-09T07:20:10;18.35;;;4.10;;
37267;SDS011;23154;52.542;13.362;2022-09-09T07:22:36;14.10;;;3.13;;
37267;SDS011;23154;52.542;13.362;2022-09-09T07:25:02;12.45;;;3.42;;
37267;SDS011;23154;52.542;13.362;2022-09-09T07:27:28;19.33;;;4.00;;
37267;SDS011;23154;52.542;13.362;2022-09-09T07:29:55;11.95;;;2.97;;
37267;SDS011;23154;52.542;13.362;2022-09-09T07:32:20;14.23;;;3.10;;
37267;SDS011;23154;52.542;13.362;2022-09-09T07:34:46;10.40;;;2.90;;
37267;SDS011;23154;52.542;13.362;2022-09-09T07:37:12;12.48;;;3.13;;
37267;SDS011;23154;52.542;13.362;2022-09-09T07:39:38;11.90;;;3.20;;
37267;SDS011;23154;52.542;13.362;2022-09-09T07:42:04;18.98;;;3.90;;
37267;SDS011;23154;52.542;13.362;2022-09-09T07:44:30;12.57;;;4.03;;
37267;SDS011;23154;52.542;13.362;2022-09-09T07:46:59;18.77;;;5.47;;
37267;SDS011;23154;52.542;13.362;2022-09-09T07:49:25;13.77;;;3.60;;
37267;SDS011;23154;52.542;13.362;2022-09-09T07:51:51;12.70;;;3.10;;
37267;SDS011;23154;52.542;13.362;2022-09-09T07:54:17;11.98;;;2.50;;
37267;SDS011;23154;52.542;13.362;2022-09-09T07:56:48;27.05;;;8.05;;
37267;SDS011;23154;52.542;13.362;2022-09-09T07:59:14;16.45;;;4.30;;
37267;SDS011;23154;52.542;13.362;2022-09-09T08:01:41;16.63;;;3.67;;
37267;SDS011;23154;52.542;13.362;2022-09-09T08:04:10;16.30;;;4.63;;
37267;SDS011;23154;52.542;13.362;2022-09-09T08:06:41;11.75;;;3.17;;
37267;SDS011;23154;52.542;13.362;2022-09-09T08:09:11;13.73;;;2.83;;
37267;SDS011;23154;52.542;13.362;2022-09-09T08:11:38;14.00;;;3.40;;
37267;SDS011;23154;52.542;13.362;2022-09-09T08:14:08;13.05;;;2.65;;
37267;SDS011;23154;52.542;13.362;2022-09-09T08:16:37;15.32;;;3.08;;
37267;SDS011;23154;52.542;13.362;2022-09-09T08:19:05;14.67;;;3.10;;
37267;SDS011;23154;52.542;13.362;2022-09-09T08:21:32;14.18;;;2.65;;
37267;SDS011;23154;52.542;13.362;2022-09-09T08:23:59;9.85;;;2.33;;
37267;SDS011;23154;52.542;13.362;2022-09-09T08:26:30;13.65;;;2.78;;
37267;SDS011;23154;52.542;13.362;2022-09-09T08:28:57;12.82;;;2.65;;
37267;SDS011;23154;52.542;13.362;2022-09-09T08:31:25;10.40;;;2.10;;
37267;SDS011;23154;52.542;13.362;2022-09-09T08:33:55;11.30;;;2.33;;
37267;SDS011;23154;52.542;13.362;2022-09-09T08:36:25;15.13;;;2.55;;
37267;SDS011;23154;52.542;13.362;2022-09-09T08:38:52;15.93;;;2.83;;
37267;SDS011;23154;52.542;13.362;2022-09-09T08:47:15;10.43;;;2.45;;
37267;SDS011;23154;52.542;13.362;2022-09-09T08:52:49;12.10;;;2.30;;
37267;SDS011;23154;52.542;13.362;2022-09-09T08:58:25;9.45;;;2.38;;
37267;SDS011;23154;52.542;13.362;2022-09-09T09:09:10;12.10;;;2.38;;
37267;SDS011;23154;52.542;13.362;2022-09-09T09:11:37;15.27;;;3.08;;
37267;SDS011;23154;52.542;13.362;2022-09-09T09:14:14;14.48;;;2.30;;
37267;SDS011;23154;52.542;13.362;2022-09-09T09:19:25;13.43;;;3.00;;
37267;SDS011;23154;52.542;13.362;2022-09-09T09:22:02;10.63;;;2.47;;
37267;SDS011;23154;52.542;13.362;2022-09-09T09:27:20;11.48;;;2.33;;
37267;SDS011;23154;52.542;13.362;2022-09-09T09:29:56;11.73;;;2.00;;
37267;SDS011;23154;52.542;13.362;2022-09-09T09:32:23;12.60;;;2.40;;
37267;SDS011;23154;52.542;13.362;2022-09-09T09:34:55;11.10;;;2.47;;
37267;SDS011;23154;52.542;13.362;2022-09-09T09:37:30;17.95;;;2.85;;
37267;SDS011;23154;52.542;13.362;2022-09-09T09:40:13;11.95;;;2.38;;
37267;SDS011;23154;52.542;13.362;2022-09-09T09:45:32;12.98;;;2.50;;
37267;SDS011;23154;52.542;13.362;2022-09-09T09:48:12;13.20;;;2.30;;
37267;SDS011;23154;52.542;13.362;2022-09-09T09:50:48;11.95;;;1.90;;
37267;SDS011;23154;52.542;13.362;2022-09-09T09:53:19;10.65;;;1.92;;
37267;SDS011;23154;52.542;13.362;2022-09-09T09:55:59;9.45;;;1.90;;
37267;SDS011;23154;52.542;13.362;2022-09-09T09:58:27;11.48;;;2.30;;
37267;SDS011;23154;52.542;13.362;2022-09-09T10:00:58;11.60;;;2.30;;
37267;SDS011;23154;52.542;13.362;2022-09-09T10:03:29;10.32;;;2.28;;
37267;SDS011;23154;52.542;13.362;2022-09-09T10:05:56;11.15;;;2.50;;
37267;SDS011;23154;52.542;13.362;2022-09-09T10:08:25;14.70;;;2.60;;
37267;SDS011;23154;52.542;13.362;2022-09-09T10:16:38;9.57;;;2.00;;
37267;SDS011;23154;52.542;13.362;2022-09-09T10:19:32;13.55;;;2.63;;
37267;SDS011;23154;52.542;13.362;2022-09-09T10:28:00;12.63;;;2.33;;
37267;SDS011;23154;52.542;13.362;2022-09-09T10:30:56;12.40;;;2.30;;
37267;SDS011;23154;52.542;13.362;2022-09-09T10:36:24;14.63;;;2.72;;
37267;SDS011;23154;52.542;13.362;2022-09-09T10:38:58;15.02;;;2.45;;
37267;SDS011;23154;52.542;13.362;2022-09-09T10:41:39;14.70;;;3.08;;
37267;SDS011;23154;52.542;13.362;2022-09-09T10:55:13;10.35;;;1.90;;
37267;SDS011;23154;52.542;13.362;2022-09-09T11:03:02;11.57;;;2.33;;
37267;SDS011;23154;52.542;13.362;2022-09-09T11:16:44;11.27;;;2.08;;
37267;SDS011;23154;52.542;13.362;2022-09-09T11:21:53;9.35;;;1.70;;
37267;SDS011;23154;52.542;13.362;2022-09-09T11:26:51;10.15;;;1.83;;
37267;SDS011;23154;52.542;13.362;2022-09-09T11:29:38;5.97;;;1.75;;
37267;SDS011;23154;52.542;13.362;2022-09-09T11:41:05;11.45;;;1.88;;
37267;SDS011;23154;52.542;13.362;2022-09-09T11:43:43;9.50;;;2.17;;
37267;SDS011;23154;52.542;13.362;2022-09-09T11:46:11;9.27;;;1.88;;
37267;SDS011;23154;52.542;13.362;2022-09-09T11:48:57;12.52;;;1.92;;
37267;SDS011;23154;52.542;13.362;2022-09-09T11:51:26;11.27;;;1.88;;
37267;SDS011;23154;52.542;13.362;2022-09-09T11:53:54;9.77;;;1.77;;
37267;SDS011;23154;52.542;13.362;2022-09-09T11:56:26;9.80;;;1.70;;
37267;SDS011;23154;52.542;13.362;2022-09-09T11:59:19;14.68;;;1.90;;
37267;SDS011;23154;52.542;13.362;2022-09-09T12:01:58;9.35;;;1.80;;
37267;SDS011;23154;52.542;13.362;2022-09-09T12:12:24;6.25;;;1.52;;
37267;SDS011;23154;52.542;13.362;2022-09-09T12:17:50;8.00;;;1.60;;
37267;SDS011;23154;52.542;13.362;2022-09-09T12:23:11;6.90;;;1.50;;
37267;SDS011;23154;52.542;13.362;2022-09-09T12:34:13;7.85;;;1.42;;
37267;SDS011;23154;52.542;13.362;2022-09-09T12:36:42;9.60;;;1.80;;
37267;SDS011;23154;52.542;13.362;2022-09-09T12:41:56;9.98;;;1.70;;
37267;SDS011;23154;52.542;13.362;2022-09-09T12:44:23;10.30;;;1.90;;
37267;SDS011;23154;52.542;13.362;2022-09-09T12:46:49;13.55;;;2.17;;
37267;SDS011;23154;52.542;13.362;2022-09-09T12:49:32;11.25;;;1.70;;
37267;SDS011;23154;52.542;13.362;2022-09-09T12:52:01;6.47;;;1.40;;
37267;SDS011;23154;52.542;13.362;2022-09-09T12:54:30;8.95;;;1.52;;
37267;SDS011;23154;52.542;13.362;2022-09-09T12:56:57;12.68;;;2.10;;
37267;SDS011;23154;52.542;13.362;2022-09-09T12:59:24;9.90;;;1.42;;
37267;SDS011;23154;52.542;13.362;2022-09-09T13:01:55;6.15;;;1.58;;
37267;SDS011;23154;52.542;13.362;2022-09-09T13:04:22;10.23;;;1.70;;
37267;SDS011;23154;52.542;13.362;2022-09-09T13:06:47;6.75;;;1.80;;
37267;SDS011;23154;52.542;13.362;2022-09-09T13:09:14;11.13;;;1.98;;
37267;SDS011;23154;52.542;13.362;2022-09-09T13:11:44;10.38;;;1.80;;
37267;SDS011;23154;52.542;13.362;2022-09-09T13:14:28;10.93;;;2.00;;
37267;SDS011;23154;52.542;13.362;2022-09-09T13:17:00;7.22;;;1.77;;
37267;SDS011;23154;52.542;13.362;2022-09-09T13:19:38;5.50;;;1.58;;
37267;SDS011;23154;52.542;13.362;2022-09-09T13:22:13;13.23;;;2.15;;
37267;SDS011;23154;52.542;13.362;2022-09-09T13:24:45;6.95;;;1.80;;
37267;SDS011;23154;52.542;13.362;2022-09-09T13:27:26;8.38;;;1.77;;
37267;SDS011;23154;52.542;13.362;2022-09-09T13:29:59;7.10;;;1.60;;
37267;SDS011;23154;52.542;13.362;2022-09-09T13:32:25;10.18;;;1.70;;
37267;SDS011;23154;52.542;13.362;2022-09-09T13:34:52;8.05;;;1.60;;
37267;SDS011;23154;52.542;13.362;2022-09-09T13:40:18;10.75;;;2.20;;
37267;SDS011;23154;52.542;13.362;2022-09-09T13:42:46;11.77;;;1.75;;
37267;SDS011;23154;52.542;13.362;2022-09-09T13:45:19;10.40;;;1.83;;
37267;SDS011;23154;52.542;13.362;2022-09-09T13:47:46;11.60;;;1.60;;
37267;SDS011;23154;52.542;13.362;2022-09-09T13:50:23;12.07;;;1.85;;
37267;SDS011;23154;52.542;13.362;2022-09-09T13:52:49;13.35;;;2.65;;
37267;SDS011;23154;52.542;13.362;2022-09-09T13:55:19;7.20;;;1.70;;
37267;SDS011;23154;52.542;13.362;2022-09-09T13:57:50;17.23;;;2.80;;
37267;SDS011;23154;52.542;13.362;2022-09-09T14:00:20;13.95;;;2.85;;
37267;SDS011;23154;52.542;13.362;2022-09-09T14:02:48;10.55;;;1.98;;
37267;SDS011;23154;52.542;13.362;2022-09-09T14:05:14;8.52;;;1.55;;
37267;SDS011;23154;52.542;13.362;2022-09-09T14:07:41;7.80;;;1.33;;
37267;SDS011;23154;52.542;13.362;2022-09-09T14:10:08;9.23;;;1.98;;
37267;SDS011;23154;52.542;13.362;2022-09-09T14:12:34;12.52;;;2.58;;
37267;SDS011;23154;52.542;13.362;2022-09-09T14:15:01;11.68;;;2.58;;
37267;SDS011;23154;52.542;13.362;2022-09-09T14:17:27;11.50;;;2.10;;
37267;SDS011;23154;52.542;13.362;2022-09-09T14:19:56;14.18;;;1.70;;
37267;SDS011;23154;52.542;13.362;2022-09-09T14:22:22;6.68;;;1.73;;
37267;SDS011;23154;52.542;13.362;2022-09-09T14:24:48;7.85;;;1.50;;
37267;SDS011;23154;52.542;13.362;2022-09-09T14:27:16;8.90;;;1.70;;
37267;SDS011;23154;52.542;13.362;2022-09-09T14:29:42;10.98;;;1.80;;
37267;SDS011;23154;52.542;13.362;2022-09-09T14:32:09;7.22;;;1.85;;
37267;SDS011;23154;52.542;13.362;2022-09-09T14:34:35;9.75;;;1.70;;
37267;SDS011;23154;52.542;13.362;2022-09-09T14:37:00;13.40;;;2.78;;
37267;SDS011;23154;52.542;13.362;2022-09-09T14:39:26;11.70;;;2.00;;
37267;SDS011;23154;52.542;13.362;2022-09-09T14:41:51;10.38;;;2.30;;
37267;SDS011;23154;52.542;13.362;2022-09-09T14:44:17;13.00;;;2.00;;
37267;SDS011;23154;52.542;13.362;2022-09-09T14:46:43;16.10;;;1.98;;
37267;SDS011;23154;52.542;13.362;2022-09-09T14:49:09;12.35;;;2.03;;
37267;SDS011;23154;52.542;13.362;2022-09-09T14:51:38;10.38;;;2.00;;
37267;SDS011;23154;52.542;13.362;2022-09-09T14:54:03;10.52;;;2.40;;
37267;SDS011;23154;52.542;13.362;2022-09-09T14:56:30;7.47;;;1.67;;
37267;SDS011;23154;52.542;13.362;2022-09-09T14:58:59;9.10;;;2.10;;
37267;SDS011;23154;52.542;13.362;2022-09-09T15:01:28;12.75;;;2.83;;
37267;SDS011;23154;52.542;13.362;2022-09-09T15:04:02;12.48;;;2.22;;
37267;SDS011;23154;52.542;13.362;2022-09-09T15:06:31;12.60;;;2.90;;
37267;SDS011;23154;52.542;13.362;2022-09-09T15:08:58;11.98;;;2.65;;
37267;SDS011;23154;52.542;13.362;2022-09-09T15:11:28;6.88;;;1.40;;
37267;SDS011;23154;52.542;13.362;2022-09-09T15:13:57;10.13;;;2.08;;
37267;SDS011;23154;52.542;13.362;2022-09-09T15:16:24;13.13;;;2.28;;
37267;SDS011;23154;52.542;13.362;2022-09-09T15:18:52;12.25;;;2.97;;
37267;SDS011;23154;52.542;13.362;2022-09-09T15:21:21;9.48;;;1.88;;
37267;SDS011;23154;52.542;13.362;2022-09-09T15:23:48;10.20;;;2.13;;
37267;SDS011;23154;52.542;13.362;2022-09-09T15:26:14;15.75;;;2.05;;
37267;SDS011;23154;52.542;13.362;2022-09-09T15:28:40;11.45;;;1.75;;
37267;SDS011;23154;52.542;13.362;2022-09-09T15:31:13;11.00;;;2.15;;
37267;SDS011;23154;52.542;13.362;2022-09-09T15:33:40;11.10;;;2.05;;
37267;SDS011;23154;52.542;13.362;2022-09-09T15:36:13;10.73;;;1.90;;
37267;SDS011;23154;52.542;13.362;2022-09-09T15:38:42;13.65;;;3.15;;
37267;SDS011;23154;52.542;13.362;2022-09-09T15:41:09;12.40;;;2.10;;
37267;SDS011;23154;52.542;13.362;2022-09-09T15:43:35;8.85;;;1.73;;
37267;SDS011;23154;52.542;13.362;2022-09-09T15:46:05;11.63;;;1.83;;
37267;SDS011;23154;52.542;13.362;2022-09-09T15:48:54;12.52;;;2.25;;
37267;SDS011;23154;52.542;13.362;2022-09-09T15:51:21;8.90;;;1.90;;
37267;SDS011;23154;52.542;13.362;2022-09-09T15:53:48;12.35;;;2.42;;
37267;SDS011;23154;52.542;13.362;2022-09-09T15:56:18;12.10;;;2.08;;
37267;SDS011;23154;52.542;13.362;2022-09-09T15:58:43;9.02;;;1.80;;
37267;SDS011;23154;52.542;13.362;2022-09-09T16:01:09;9.40;;;1.90;;
37267;SDS011;23154;52.542;13.362;2022-09-09T16:03:39;12.65;;;2.13;;
37267;SDS011;23154;52.542;13.362;2022-09-09T16:06:11;7.47;;;1.70;;
37267;SDS011;23154;52.542;13.362;2022-09-09T16:08:39;14.15;;;2.42;;
37267;SDS011;23154;52.542;13.362;2022-09-09T16:11:11;12.45;;;2.08;;
37267;SDS011;23154;52.542;13.362;2022-09-09T16:13:40;9.40;;;2.05;;
37267;SDS011;23154;52.542;13.362;2022-09-09T16:16:07;10.88;;;1.98;;
37267;SDS011;23154;52.542;13.362;2022-09-09T16:18:37;13.40;;;2.10;;
37267;SDS011;23154;52.542;13.362;2022-09-09T16:21:05;15.55;;;1.90;;
37267;SDS011;23154;52.542;13.362;2022-09-09T16:23:33;14.38;;;2.38;;
37267;SDS011;23154;52.542;13.362;2022-09-09T16:25:59;12.52;;;2.20;;
37267;SDS011;23154;52.542;13.362;2022-09-09T16:28:26;14.82;;;2.08;;
37267;SDS011;23154;52.542;13.362;2022-09-09T16:30:52;16.85;;;2.70;;
37267;SDS011;23154;52.542;13.362;2022-09-09T16:33:18;22.40;;;4.85;;
37267;SDS011;23154;52.542;13.362;2022-09-09T16:35:43;12.07;;;2.50;;
37267;SDS011;23154;52.542;13.362;2022-09-09T16:38:09;15.70;;;2.90;;
37267;SDS011;23154;52.542;13.362;2022-09-09T16:40:35;13.85;;;3.40;;
37267;SDS011;23154;52.542;13.362;2022-09-09T16:43:04;16.20;;;3.25;;
37267;SDS011;23154;52.542;13.362;2022-09-09T16:45:31;28.43;;;10.50;;
37267;SDS011;23154;52.542;13.362;2022-09-09T16:47:57;13.23;;;2.67;;
37267;SDS011;23154;52.542;13.362;2022-09-09T16:50:25;11.63;;;2.72;;
37267;SDS011;23154;52.542;13.362;2022-09-09T16:52:51;16.13;;;2.65;;
37267;SDS011;23154;52.542;13.362;2022-09-09T16:55:17;12.23;;;2.20;;
37267;SDS011;23154;52.542;13.362;2022-09-09T16:57:45;14.20;;;3.15;;
37267;SDS011;23154;52.542;13.362;2022-09-09T17:00:13;13.77;;;2.75;;
37267;SDS011;23154;52.542;13.362;2022-09-09T17:02:41;12.40;;;2.72;;
37267;SDS011;23154;52.542;13.362;2022-09-09T17:05:07;20.45;;;5.57;;